createdAt,value
2019-05-02T00:00:53.577Z,5.52
2019-05-02T00:03:24.298Z,5.49
2019-05-02T00:05:53.111Z,5.50
2019-05-02T00:08:22.732Z,5.52
2019-05-02T00:10:51.985Z,5.42
2019-05-02T00:13:20.777Z,5.44
2019-05-02T00:15:51.050Z,5.38
2019-05-02T00:18:20.610Z,5.40
2019-05-02T00:20:49.342Z,5.30
2019-05-02T00:23:18.250Z,5.28
2019-05-02T00:25:47.266Z,5.25
2019-05-02T00:28:17.542Z,5.29
2019-05-02T00:30:46.350Z,5.20
2019-05-02T00:33:15.030Z,5.14
2019-05-02T00:35:46.089Z,5.09
2019-05-02T00:38:14.183Z,5.05
2019-05-02T00:40:42.873Z,5.03
2019-05-02T00:43:11.603Z,5.10
2019-05-02T00:45:40.263Z,5.15
2019-05-02T00:48:14.415Z,5.29
2019-05-02T00:50:45.430Z,5.34
2019-05-02T00:53:13.604Z,5.54
2019-05-02T00:55:42.252Z,5.55
2019-05-02T00:58:11.007Z,5.67
2019-05-02T01:00:59.842Z,5.71
2019-05-02T01:03:31.982Z,5.63
2019-05-02T01:06:00.127Z,5.50
2019-05-02T01:08:31.004Z,5.29
2019-05-02T01:10:59.292Z,5.24
2019-05-02T01:13:28.008Z,5.43
2019-05-02T01:15:56.671Z,5.40
2019-05-02T01:18:25.454Z,5.49
2019-05-02T01:20:58.250Z,5.34
2019-05-02T01:23:27.564Z,5.21
2019-05-02T01:25:54.960Z,5.31
2019-05-02T01:28:42.688Z,5.26
2019-05-02T01:31:20.214Z,5.19
2019-05-02T01:34:00.209Z,5.02
2019-05-02T01:36:36.753Z,5.02
2019-05-02T01:39:07.600Z,5.02
2019-05-02T01:41:35.691Z,4.99
2019-05-02T01:44:04.765Z,5.05
2019-05-02T01:46:33.456Z,4.98
2019-05-02T01:49:02.124Z,4.91
2019-05-02T01:51:30.791Z,4.90
2019-05-02T01:53:59.486Z,4.89
2019-05-02T01:56:28.598Z,4.87
2019-05-02T01:58:58.956Z,4.98
2019-05-02T02:01:27.951Z,5.00
2019-05-02T02:03:56.625Z,4.75
2019-05-02T02:06:25.297Z,4.93
2019-05-02T02:08:53.956Z,4.76
2019-05-02T02:11:22.721Z,4.81
2019-05-02T02:13:51.380Z,4.77
2019-05-02T02:16:20.067Z,4.90
2019-05-02T02:18:59.036Z,4.89
2019-05-02T02:21:48.286Z,5.11
2019-05-02T02:24:27.261Z,5.41
2019-05-02T02:26:56.525Z,5.63
2019-05-02T02:29:25.199Z,5.74
2019-05-02T02:31:53.945Z,5.89
2019-05-02T02:34:29.000Z,6.05
2019-05-02T02:36:53.353Z,6.18
2019-05-02T02:39:22.019Z,6.31
2019-05-02T02:41:52.153Z,6.46
2019-05-02T02:44:39.849Z,6.72
2019-05-02T02:47:12.096Z,6.89
2019-05-02T02:49:36.952Z,6.98
2019-05-02T02:52:06.878Z,7.08
2019-05-02T02:54:36.575Z,7.18
2019-05-02T02:57:06.109Z,7.23
2019-05-02T02:59:34.757Z,7.25
2019-05-02T03:02:10.093Z,7.30
2019-05-02T03:04:33.897Z,7.30
2019-05-02T03:07:02.560Z,7.33
2019-05-02T03:09:31.370Z,7.38
2019-05-02T03:12:18.073Z,7.33
2019-05-02T03:14:51.365Z,7.33
2019-05-02T03:17:26.112Z,7.36
2019-05-02T03:19:54.488Z,7.37
2019-05-02T03:22:20.467Z,7.37
2019-05-02T03:24:49.154Z,7.35
2019-05-02T03:27:18.030Z,7.36
2019-05-02T03:29:46.789Z,7.38
2019-05-02T03:32:30.654Z,7.39
2019-05-02T03:34:52.521Z,7.38
2019-05-02T03:37:17.740Z,7.38
2019-05-02T03:39:49.639Z,7.40
2019-05-02T03:42:17.645Z,7.40
2019-05-02T03:44:55.071Z,7.43
2019-05-02T03:47:16.776Z,7.40
2019-05-02T03:49:48.894Z,7.42
2019-05-02T03:52:16.090Z,7.46
2019-05-02T03:54:50.127Z,7.45
2019-05-02T03:57:15.507Z,7.44
2019-05-02T03:59:44.189Z,7.45
2019-05-02T04:02:13.993Z,7.48
2019-05-02T04:04:43.892Z,7.46
2019-05-02T04:07:12.857Z,7.46
2019-05-02T04:09:42.597Z,7.44
2019-05-02T04:12:18.513Z,7.48
2019-05-02T04:14:42.576Z,7.48
2019-05-02T04:17:12.010Z,7.46
2019-05-02T04:19:41.616Z,7.45
2019-05-02T04:22:12.068Z,7.46
2019-05-02T04:24:47.332Z,7.44
2019-05-02T04:27:13.100Z,7.45
2019-05-02T04:29:42.563Z,7.40
2019-05-02T04:32:14.156Z,7.36
2019-05-02T04:34:41.693Z,7.34
2019-05-02T04:37:10.412Z,7.30
2019-05-02T04:39:39.343Z,7.27
2019-05-02T04:42:13.349Z,7.31
2019-05-02T04:44:46.391Z,7.27
2019-05-02T04:47:16.604Z,7.31
2019-05-02T04:49:39.520Z,7.39
2019-05-02T04:52:12.453Z,7.47
2019-05-02T04:54:39.065Z,7.48
2019-05-02T04:57:08.690Z,7.61
2019-05-02T04:59:39.561Z,7.52
2019-05-02T05:02:08.977Z,7.58
2019-05-02T05:04:42.339Z,7.65
2019-05-02T05:07:09.290Z,7.56
2019-05-02T05:09:39.870Z,7.59
2019-05-02T05:12:08.826Z,7.59
2019-05-02T05:14:41.292Z,7.67
2019-05-02T05:17:08.114Z,7.81
2019-05-02T05:19:37.349Z,7.84
2019-05-02T05:22:08.854Z,7.96
2019-05-02T05:24:44.963Z,7.92
2019-05-02T05:27:18.990Z,7.93
2019-05-02T05:29:45.999Z,7.81
2019-05-02T05:32:14.761Z,7.66
2019-05-02T05:34:43.447Z,7.79
2019-05-02T05:37:13.536Z,7.87
2019-05-02T05:39:43.048Z,7.83
2019-05-02T05:42:12.767Z,7.81
2019-05-02T05:44:41.426Z,7.81
2019-05-02T05:47:12.120Z,7.92
2019-05-02T05:49:40.500Z,8.05
2019-05-02T05:52:09.267Z,8.02
2019-05-02T05:54:41.889Z,8.08
2019-05-02T05:57:12.233Z,8.32
2019-05-02T05:59:38.737Z,8.14
2019-05-02T06:02:12.679Z,7.94
2019-05-02T06:04:38.701Z,8.00
2019-05-02T06:07:07.629Z,8.02
2019-05-02T06:09:36.368Z,8.23
2019-05-02T06:12:05.071Z,8.24
2019-05-02T06:14:34.538Z,8.24
2019-05-02T06:17:03.550Z,8.28
2019-05-02T06:19:32.255Z,8.40
2019-05-02T06:22:01.020Z,8.63
2019-05-02T06:24:29.680Z,8.71
2019-05-02T06:26:58.368Z,8.91
2019-05-02T06:29:27.075Z,8.55
2019-05-02T06:31:57.325Z,8.47
2019-05-02T06:34:26.268Z,8.47
2019-05-02T06:36:54.960Z,8.80
2019-05-02T06:39:27.060Z,8.64
2019-05-02T06:41:57.551Z,8.41
2019-05-02T06:44:25.434Z,8.47
2019-05-02T06:46:54.183Z,8.36
2019-05-02T06:49:24.895Z,8.41
2019-05-02T06:51:56.231Z,8.71
2019-05-02T06:54:24.142Z,8.85
2019-05-02T06:56:52.879Z,8.73
2019-05-02T06:59:21.623Z,8.73
2019-05-02T07:01:52.402Z,8.63
2019-05-02T07:04:22.775Z,8.72
2019-05-02T07:06:58.845Z,8.67
2019-05-02T07:09:21.942Z,8.60
2019-05-02T07:11:57.852Z,8.85
2019-05-02T07:14:23.433Z,8.99
2019-05-02T07:17:05.829Z,8.86
2019-05-02T07:19:37.697Z,9.20
2019-05-02T07:22:06.439Z,9.38
2019-05-02T07:24:35.197Z,9.58
2019-05-02T07:27:04.151Z,9.15
2019-05-02T07:29:32.824Z,8.88
2019-05-02T07:32:01.500Z,9.13
2019-05-02T07:34:30.216Z,9.03
2019-05-02T07:36:58.856Z,9.12
2019-05-02T07:39:27.584Z,9.29
2019-05-02T07:42:00.456Z,9.44
2019-05-02T07:44:27.170Z,9.27
2019-05-02T07:47:02.607Z,9.15
2019-05-02T07:49:32.152Z,9.35
2019-05-02T07:51:58.950Z,9.25
2019-05-02T07:54:27.646Z,9.47
2019-05-02T07:56:56.335Z,9.76
2019-05-02T07:59:25.144Z,9.84
2019-05-02T08:01:53.993Z,9.70
2019-05-02T08:04:22.701Z,9.92
2019-05-02T08:06:51.377Z,9.82
2019-05-02T08:09:20.036Z,10.20
2019-05-02T08:11:48.829Z,10.53
2019-05-02T08:14:17.550Z,10.21
2019-05-02T08:16:46.199Z,10.07
2019-05-02T08:19:14.876Z,10.20
2019-05-02T08:21:43.590Z,10.26
2019-05-02T08:24:12.244Z,10.18
2019-05-02T08:26:59.721Z,10.42
2019-05-02T08:29:29.266Z,9.83
2019-05-02T08:31:58.825Z,10.35
2019-05-02T08:34:32.273Z,10.42
2019-05-02T08:37:03.225Z,10.34
2019-05-02T08:39:33.951Z,10.19
2019-05-02T08:42:02.615Z,10.00
2019-05-02T08:44:31.285Z,10.14
2019-05-02T08:47:00.994Z,10.08
2019-05-02T08:49:31.122Z,10.05
2019-05-02T08:52:01.249Z,10.40
2019-05-02T08:54:32.812Z,10.18
2019-05-02T08:57:01.334Z,10.30
2019-05-02T08:59:30.009Z,10.57
2019-05-02T09:01:58.672Z,10.55
2019-05-02T09:04:29.058Z,10.77
2019-05-02T09:07:00.500Z,10.63
2019-05-02T09:09:29.529Z,11.00
2019-05-02T09:12:09.720Z,11.43
2019-05-02T09:14:28.751Z,11.04
2019-05-02T09:17:00.321Z,11.09
2019-05-02T09:19:27.833Z,11.14
2019-05-02T09:21:56.492Z,10.86
2019-05-02T09:24:25.177Z,11.20
2019-05-02T09:26:53.838Z,11.61
2019-05-02T09:29:22.511Z,12.10
2019-05-02T09:31:52.751Z,11.70
2019-05-02T09:34:22.790Z,12.03
2019-05-02T09:36:52.912Z,12.13
2019-05-02T09:39:22.689Z,12.41
2019-05-02T09:41:52.731Z,11.85
2019-05-02T09:44:22.377Z,11.93
2019-05-02T09:46:55.209Z,11.78
2019-05-02T09:49:22.141Z,12.29
2019-05-02T09:51:59.200Z,12.03
2019-05-02T09:54:23.162Z,11.83
2019-05-02T09:56:52.477Z,11.91
2019-05-02T09:59:27.774Z,12.38
2019-05-02T10:01:53.643Z,12.61
2019-05-02T10:04:22.520Z,12.86
2019-05-02T10:06:52.518Z,12.64
2019-05-02T10:09:24.088Z,12.70
2019-05-02T10:11:52.571Z,12.76
2019-05-02T10:14:22.713Z,12.30
2019-05-02T10:16:52.931Z,12.46
2019-05-02T10:19:25.881Z,12.56
2019-05-02T10:21:56.172Z,12.34
2019-05-02T10:24:22.874Z,12.21
2019-05-02T10:26:55.268Z,12.45
2019-05-02T10:29:28.151Z,12.78
2019-05-02T10:31:52.778Z,13.46
2019-05-02T10:34:22.603Z,14.20
2019-05-02T10:36:58.591Z,14.18
2019-05-02T10:39:23.416Z,15.05
2019-05-02T10:41:52.724Z,15.88
2019-05-02T10:44:22.701Z,15.00
2019-05-02T10:46:56.158Z,14.63
2019-05-02T10:49:32.128Z,14.61
2019-05-02T10:52:02.610Z,15.50
2019-05-02T10:54:33.675Z,14.47
2019-05-02T10:57:02.363Z,15.06
2019-05-02T10:59:32.785Z,16.99
2019-05-02T11:02:19.642Z,17.30
2019-05-02T11:04:52.437Z,17.15
2019-05-02T11:07:22.643Z,16.23
2019-05-02T11:09:52.593Z,15.28
2019-05-02T11:12:44.485Z,14.75
2019-05-02T11:15:26.903Z,16.04
2019-05-02T11:17:55.603Z,16.25
2019-05-02T11:20:24.269Z,16.14
2019-05-02T11:22:54.636Z,15.68
2019-05-02T11:25:23.464Z,15.10
2019-05-02T11:27:52.609Z,15.20
2019-05-02T11:30:26.374Z,15.74
2019-05-02T11:32:52.157Z,15.49
2019-05-02T11:35:22.367Z,15.82
2019-05-02T11:37:51.726Z,16.42
2019-05-02T11:40:22.683Z,17.31
2019-05-02T11:42:52.173Z,17.81
2019-05-02T11:45:22.709Z,18.12
2019-05-02T11:47:54.445Z,18.14
2019-05-02T11:50:22.146Z,19.16
2019-05-02T11:52:52.324Z,18.83
2019-05-02T11:55:24.752Z,17.77
2019-05-02T11:57:52.370Z,17.06
2019-05-02T12:00:21.849Z,17.59
2019-05-02T12:02:58.861Z,17.39
2019-05-02T12:05:35.651Z,18.29
2019-05-02T12:08:07.713Z,18.56
2019-05-02T12:10:36.619Z,18.15
2019-05-02T12:13:06.707Z,18.22
2019-05-02T12:15:35.658Z,17.48
2019-05-02T12:18:04.777Z,17.41
2019-05-02T12:20:36.591Z,16.15
2019-05-02T12:23:03.928Z,17.30
2019-05-02T12:25:32.894Z,17.59
2019-05-02T12:28:02.348Z,16.94
2019-05-02T12:30:34.085Z,16.90
2019-05-02T12:33:03.932Z,17.12
2019-05-02T12:35:32.622Z,16.83
2019-05-02T12:38:02.718Z,16.82
2019-05-02T12:40:32.586Z,16.46
2019-05-02T12:43:02.463Z,16.52
2019-05-02T12:45:33.587Z,16.00
2019-05-02T12:48:02.426Z,15.98
2019-05-02T12:50:32.206Z,16.27
2019-05-02T12:53:02.792Z,16.74
2019-05-02T12:55:32.607Z,17.25
2019-05-02T12:58:03.099Z,17.01
2019-05-02T13:00:32.126Z,17.25
2019-05-02T13:03:12.236Z,17.38
2019-05-02T13:05:42.603Z,17.50
2019-05-02T13:08:12.303Z,18.15
2019-05-02T13:11:06.634Z,19.68
2019-05-02T13:13:33.224Z,21.21
2019-05-02T13:16:03.756Z,22.25
2019-05-02T13:18:36.326Z,20.69
2019-05-02T13:21:08.123Z,18.57
2019-05-02T13:23:44.286Z,17.38
2019-05-02T13:26:19.805Z,16.68
2019-05-02T13:28:44.181Z,17.81
2019-05-02T13:31:23.354Z,17.60
2019-05-02T13:33:58.722Z,17.23
2019-05-02T13:36:44.040Z,16.19
2019-05-02T13:39:22.072Z,15.76
2019-05-02T13:41:52.180Z,15.77
2019-05-02T13:44:24.652Z,15.64
2019-05-02T13:46:53.621Z,15.98
2019-05-02T13:49:22.452Z,16.13
2019-05-02T13:51:52.109Z,16.19
2019-05-02T13:54:22.085Z,17.82
2019-05-02T13:56:52.899Z,18.04
2019-05-02T13:59:22.464Z,16.56
2019-05-02T14:01:55.890Z,16.99
2019-05-02T14:04:27.691Z,18.27
2019-05-02T14:06:58.904Z,16.89
2019-05-02T14:09:52.694Z,16.15
2019-05-02T14:12:27.221Z,15.97
2019-05-02T14:14:58.657Z,15.73
2019-05-02T14:17:32.448Z,15.77
2019-05-02T14:20:10.450Z,15.47
2019-05-02T14:22:33.847Z,15.24
2019-05-02T14:25:04.140Z,15.33
2019-05-02T14:27:34.680Z,15.55
2019-05-02T14:30:06.192Z,15.86
2019-05-02T14:32:36.115Z,15.90
2019-05-02T14:35:32.600Z,15.82
2019-05-02T14:38:17.610Z,15.61
2019-05-02T14:40:58.796Z,15.72
2019-05-02T14:43:48.356Z,16.32
2019-05-02T14:46:22.140Z,16.39
2019-05-02T14:48:52.782Z,16.09
2019-05-02T14:51:27.567Z,16.02
2019-05-02T14:53:57.394Z,15.92
2019-05-02T14:56:45.911Z,15.71
2019-05-02T14:59:17.902Z,15.89
2019-05-02T15:01:46.734Z,15.85
2019-05-02T15:04:17.529Z,15.66
2019-05-02T15:06:49.518Z,15.65
2019-05-02T15:09:24.829Z,15.58
2019-05-02T15:12:02.397Z,15.77
2019-05-02T15:14:37.491Z,15.96
2019-05-02T15:17:09.546Z,15.94
2019-05-02T15:19:39.565Z,15.91
2019-05-02T15:22:12.460Z,15.56
2019-05-02T15:24:42.433Z,15.35
2019-05-02T15:27:17.690Z,15.20
2019-05-02T15:29:44.091Z,14.99
2019-05-02T15:32:28.354Z,14.90
2019-05-02T15:35:02.997Z,14.49
2019-05-02T15:37:32.218Z,13.58
2019-05-02T15:42:34.189Z,12.41
2019-05-02T15:45:05.644Z,12.32
2019-05-02T15:47:37.126Z,12.35
2019-05-02T15:50:04.261Z,12.41
2019-05-02T15:52:34.705Z,12.49
2019-05-02T15:55:04.273Z,12.81
2019-05-02T15:57:43.076Z,13.34
2019-05-02T16:00:03.921Z,13.24
2019-05-02T16:02:32.966Z,13.15
2019-05-02T16:05:05.074Z,13.09
2019-05-02T16:07:32.634Z,13.03
2019-05-02T16:10:03.849Z,12.93
2019-05-02T16:12:35.960Z,12.89
2019-05-02T16:15:08.419Z,12.81
2019-05-02T16:17:33.437Z,12.64
2019-05-02T16:20:10.835Z,12.35
2019-05-02T16:22:46.238Z,12.28
2019-05-02T16:25:12.209Z,12.17
2019-05-02T16:27:47.757Z,12.02
2019-05-02T16:30:19.181Z,11.89
2019-05-02T16:32:52.431Z,11.79
2019-05-02T16:35:22.167Z,11.63
2019-05-02T16:37:52.305Z,11.45
2019-05-02T16:40:29.783Z,11.30
2019-05-02T16:42:53.767Z,11.22
2019-05-02T16:45:23.282Z,11.17
2019-05-02T16:47:58.800Z,11.08
2019-05-02T16:50:23.059Z,10.99
2019-05-02T16:52:53.356Z,10.91
2019-05-02T16:55:26.623Z,10.86
2019-05-02T16:57:56.860Z,10.83
2019-05-02T17:00:25.571Z,10.87
2019-05-02T17:02:54.301Z,10.89
2019-05-02T17:05:23.109Z,10.92
2019-05-02T17:08:18.621Z,10.96
2019-05-02T17:10:53.793Z,10.95
2019-05-02T17:13:21.463Z,10.85
2019-05-02T17:15:50.025Z,10.94
2019-05-02T17:18:18.713Z,10.89
2019-05-02T17:20:53.538Z,10.86
2019-05-02T17:23:17.871Z,10.84
2019-05-02T17:25:46.647Z,10.79
2019-05-02T17:28:15.322Z,10.81
2019-05-02T17:30:44.061Z,10.80
2019-05-02T17:33:16.069Z,10.84
2019-05-02T17:35:49.300Z,10.85
2019-05-02T17:38:13.899Z,10.88
2019-05-02T17:40:42.561Z,10.90
2019-05-02T17:43:11.450Z,10.87
2019-05-02T17:45:40.262Z,10.89
2019-05-02T17:48:15.704Z,10.90
2019-05-02T17:51:12.451Z,10.91
2019-05-02T17:53:48.107Z,10.92
2019-05-02T17:56:20.304Z,10.91
2019-05-02T17:58:47.455Z,10.93
2019-05-02T18:01:18.879Z,10.93
2019-05-02T18:03:47.557Z,10.93
2019-05-02T18:06:17.389Z,10.93
2019-05-02T18:08:50.631Z,10.94
2019-05-02T18:11:16.482Z,10.93
2019-05-02T18:13:45.167Z,10.92
2019-05-02T18:16:16.615Z,10.95
2019-05-02T18:18:46.773Z,10.95
2019-05-02T18:21:17.747Z,10.93
2019-05-02T18:23:45.139Z,10.92
2019-05-02T18:26:13.813Z,10.93
2019-05-02T18:28:49.066Z,10.93
2019-05-02T18:31:12.968Z,10.94
2019-05-02T18:33:42.574Z,10.91
2019-05-02T18:36:11.341Z,10.94
2019-05-02T18:38:41.716Z,10.91
2019-05-02T18:41:12.057Z,10.93
2019-05-02T18:43:45.093Z,10.90
2019-05-02T18:46:12.756Z,10.88
2019-05-02T18:48:45.768Z,10.86
2019-05-02T18:51:17.247Z,10.91
2019-05-02T18:53:43.025Z,10.87
2019-05-02T18:56:12.452Z,10.85
2019-05-02T18:58:45.190Z,10.86
2019-05-02T19:01:14.014Z,10.84
2019-05-02T19:03:42.308Z,10.82
2019-05-02T19:06:11.699Z,10.86
2019-05-02T19:08:46.631Z,10.79
2019-05-02T19:11:14.168Z,10.82
2019-05-02T19:13:44.429Z,10.80
2019-05-02T19:16:13.362Z,10.73
2019-05-02T19:18:42.517Z,10.70
2019-05-02T19:21:12.527Z,10.65
2019-05-02T19:23:42.608Z,10.63
2019-05-02T19:26:14.977Z,10.61
2019-05-02T19:28:48.296Z,10.66
2019-05-02T19:31:16.955Z,10.68
2019-05-02T19:33:45.698Z,10.70
2019-05-02T19:36:16.471Z,10.70
2019-05-02T19:38:44.889Z,10.68
2019-05-02T19:41:13.648Z,10.70
2019-05-02T19:43:49.443Z,10.71
2019-05-02T19:46:12.775Z,10.66
2019-05-02T19:48:43.074Z,10.76
2019-05-02T19:51:18.683Z,10.77
2019-05-02T19:53:42.675Z,10.74
2019-05-02T19:56:12.770Z,10.77
2019-05-02T19:58:46.475Z,10.74
2019-05-02T20:01:12.659Z,10.75
2019-05-02T20:03:42.440Z,10.80
2019-05-02T20:06:12.816Z,10.75
2019-05-02T20:08:42.022Z,10.74
2019-05-02T20:11:12.608Z,10.72
2019-05-02T20:13:41.420Z,10.74
2019-05-02T20:16:19.355Z,10.66
2019-05-02T20:18:48.036Z,10.63
2019-05-02T20:21:27.398Z,10.66
2019-05-02T20:23:52.475Z,10.72
2019-05-02T20:26:22.141Z,10.75
2019-05-02T20:28:52.806Z,10.78
2019-05-02T20:31:21.742Z,10.77
2019-05-02T20:33:52.006Z,10.73
2019-05-02T20:36:22.704Z,10.71
2019-05-02T20:38:52.566Z,10.64
2019-05-02T20:41:22.422Z,10.59
2019-05-02T20:43:51.673Z,10.64
2019-05-02T20:46:21.835Z,10.60
2019-05-02T20:48:52.554Z,10.58
2019-05-02T20:51:22.781Z,10.66
2019-05-02T20:53:52.557Z,10.67
2019-05-02T20:56:23.055Z,10.64
2019-05-02T20:58:52.689Z,10.61
2019-05-02T21:01:21.810Z,10.57
2019-05-02T21:03:52.176Z,10.50
2019-05-02T21:06:46.245Z,10.45
2019-05-02T21:09:37.192Z,10.34
2019-05-02T21:12:07.237Z,10.30
2019-05-02T21:14:36.087Z,10.26
2019-05-02T21:17:05.087Z,10.28
2019-05-02T21:19:33.878Z,10.25
2019-05-02T21:22:07.301Z,10.16
2019-05-02T21:24:36.073Z,10.12
2019-05-02T21:27:04.872Z,10.11
2019-05-02T21:29:33.537Z,10.08
2019-05-02T21:32:02.291Z,10.05
2019-05-02T21:34:31.832Z,10.03
2019-05-02T21:37:02.468Z,10.16
2019-05-02T21:39:31.905Z,10.26
2019-05-02T21:42:02.343Z,10.30
2019-05-02T21:44:31.614Z,10.35
2019-05-02T21:47:02.479Z,10.24
2019-05-02T21:49:42.990Z,10.05
2019-05-02T21:52:27.324Z,9.92
2019-05-02T21:55:06.377Z,9.81
2019-05-02T21:57:35.023Z,9.67
2019-05-02T22:00:05.907Z,9.49
2019-05-02T22:02:34.733Z,9.33
2019-05-02T22:05:03.759Z,9.13
2019-05-02T22:07:32.446Z,9.00
2019-05-02T22:10:02.982Z,8.89
2019-05-02T22:12:31.842Z,8.71
2019-05-02T22:15:02.321Z,8.64
2019-05-02T22:17:32.264Z,8.56
2019-05-02T22:20:01.807Z,8.47
2019-05-02T22:22:32.125Z,8.32
2019-05-02T22:25:02.209Z,8.24
2019-05-02T22:27:32.505Z,8.22
2019-05-02T22:30:02.090Z,8.15
2019-05-02T22:32:32.130Z,8.07
2019-05-02T22:35:01.813Z,8.07
2019-05-02T22:37:32.615Z,8.24
2019-05-02T22:40:05.162Z,8.30
2019-05-02T22:42:33.811Z,8.29
2019-05-02T22:45:04.629Z,8.25
2019-05-02T22:47:32.857Z,8.27
2019-05-02T22:50:01.509Z,8.31
2019-05-02T22:52:32.153Z,8.32
2019-05-02T22:55:02.862Z,8.35
2019-05-02T22:57:31.831Z,8.38
2019-05-02T23:00:01.930Z,8.43
2019-05-02T23:02:32.481Z,8.47
2019-05-02T23:05:01.934Z,8.45
2019-05-02T23:07:30.887Z,8.47
2019-05-02T23:09:59.543Z,8.48
2019-05-02T23:12:28.221Z,8.47
2019-05-02T23:14:56.916Z,8.48
2019-05-02T23:17:25.558Z,8.47
2019-05-02T23:19:54.207Z,8.41
2019-05-02T23:22:22.886Z,8.37
2019-05-02T23:25:09.374Z,8.36
2019-05-02T23:27:45.153Z,8.38
2019-05-02T23:30:16.973Z,8.37
2019-05-02T23:32:45.625Z,8.34
2019-05-02T23:35:15.158Z,8.37
2019-05-02T23:37:43.830Z,8.36
2019-05-02T23:40:12.694Z,8.34
2019-05-02T23:42:41.774Z,8.32
2019-05-02T23:45:12.121Z,8.33
2019-05-02T23:47:42.157Z,8.36
2019-05-02T23:50:12.133Z,8.34
2019-05-02T23:52:40.948Z,8.36
2019-05-02T23:55:09.766Z,8.33
2019-05-02T23:57:38.518Z,8.36
